Time;durP1;ratioP1;P1;durP2;ratioP2;P2;SDS_P1;SDS_P2;PMS_P1;PMS_P2;Temp;Humidity;BMP_temperature;BMP_pressure;BME280_temperature;BME280_humidity;BME280_pressure;Samples;Min_cycle;Max_cycle;Signal;HPM_P1;HPM_P2
2022/01/06 00:02:02;;;;;;;5.15;2.78;;;;;;;5.46;76.55;99794.44;10469911;28;20131;-61
2022/01/06 00:07:03;;;;;;;4.70;2.47;;;;;;;5.53;76.46;99802.81;10466759;28;20049;-61
2022/01/06 00:12:06;;;;;;;4.78;2.78;;;;;;;5.49;76.80;99804.78;10471078;28;20476;-61
2022/01/06 00:17:42;;;;;;;4.63;2.22;;;;;;;5.42;76.92;99827.25;10469879;28;20181;-60
2022/01/06 00:28:03;;;;;;;6.53;2.50;;;;;;;5.68;75.93;99835.25;10472041;28;20127;-61
2022/01/06 00:33:05;;;;;;;8.13;2.78;;;;;;;5.59;76.04;99832.28;10471247;28;20135;-61
2022/01/06 00:38:08;;;;;;;5.28;2.45;;;;;;;5.55;76.62;99846.63;10461151;28;20561;-61
2022/01/06 00:43:11;;;;;;;5.63;2.33;;;;;;;5.62;76.75;99842.63;10467402;28;20119;-61
2022/01/06 00:48:12;;;;;;;4.75;2.70;;;;;;;5.55;75.95;99825.50;10486570;22;20074;-59
2022/01/06 00:53:14;;;;;;;5.47;2.25;;;;;;;5.68;76.36;99840.53;10468663;28;20489;-56
2022/01/06 00:58:15;;;;;;;5.20;2.50;;;;;;;5.63;76.34;99839.03;10478400;28;20131;-57
2022/01/06 01:03:20;;;;;;;3.70;2.45;;;;;;;5.66;76.49;99844.13;10470230;28;20125;-58
2022/01/06 01:08:23;;;;;;;3.83;2.15;;;;;;;5.64;76.79;99861.00;10473574;28;20112;-60
2022/01/06 01:13:29;;;;;;;7.43;3.47;;;;;;;5.58;76.33;99850.84;10477062;28;20129;-56
2022/01/06 01:18:31;;;;;;;3.97;2.80;;;;;;;5.68;76.91;99856.38;10478121;28;20538;-57
2022/01/06 01:23:32;;;;;;;5.60;2.25;;;;;;;5.72;76.93;99877.22;10475401;28;20569;-58
2022/01/06 01:28:43;;;;;;;4.90;1.95;;;;;;;5.72;76.38;99878.97;10477524;28;20491;-58
2022/01/06 01:33:46;;;;;;;3.50;2.20;;;;;;;5.63;76.72;99898.91;10479081;28;20060;-58
2022/01/06 01:38:47;;;;;;;4.88;2.03;;;;;;;5.67;76.71;99897.78;10471804;28;20131;-59
2022/01/06 01:43:50;;;;;;;3.90;2.67;;;;;;;5.54;76.91;99892.47;10472785;28;20047;-56
2022/01/06 01:49:12;;;;;;;3.65;1.95;;;;;;;5.43;77.59;99900.22;10476158;28;20132;-56
2022/01/06 01:54:13;;;;;;;3.22;1.80;;;;;;;5.36;78.09;99904.19;10474613;28;20067;-57
2022/01/06 01:59:15;;;;;;;5.55;2.08;;;;;;;5.43;77.78;99914.25;10468717;28;20135;-58
2022/01/06 02:04:16;;;;;;;4.20;2.00;;;;;;;5.42;77.48;99901.16;10470940;28;20075;-58
2022/01/06 02:09:18;;;;;;;4.38;2.05;;;;;;;5.59;77.23;99914.13;10474078;28;20416;-57
2022/01/06 02:14:19;;;;;;;5.20;1.83;;;;;;;5.74;77.30;99929.94;10476647;28;20059;-56
2022/01/06 02:19:21;;;;;;;4.53;2.00;;;;;;;5.63;74.97;99939.38;10479124;28;20048;-58
2022/01/06 02:24:22;;;;;;;6.90;2.00;;;;;;;5.04;75.73;99936.13;10473709;28;20077;-57
2022/01/06 02:29:24;;;;;;;5.07;1.60;;;;;;;5.32;75.03;99956.34;10468784;28;20072;-57
2022/01/06 02:34:25;;;;;;;3.90;1.75;;;;;;;5.51;74.66;99940.19;10473780;28;20550;-59
2022/01/06 02:39:26;;;;;;;3.00;1.30;;;;;;;5.48;73.95;99956.22;10469771;28;20627;-57
2022/01/06 02:44:28;;;;;;;5.22;2.10;;;;;;;5.51;74.18;99950.75;10471102;28;20072;-57
2022/01/06 02:49:29;;;;;;;4.60;1.38;;;;;;;5.59;74.48;99959.00;10471478;28;20147;-57
2022/01/06 02:54:31;;;;;;;5.07;1.73;;;;;;;5.68;73.54;99954.94;10473915;28;20151;-58
2022/01/06 02:59:32;;;;;;;5.03;2.33;;;;;;;5.69;73.24;99956.63;10475837;28;20139;-59
2022/01/06 03:04:34;;;;;;;4.95;1.95;;;;;;;5.72;73.76;99955.56;10468281;28;20091;-58
2022/01/06 03:09:41;;;;;;;3.67;2.45;;;;;;;5.73;74.71;99959.91;10469241;28;20566;-57
2022/01/06 03:14:42;;;;;;;6.57;2.25;;;;;;;5.77;74.68;99972.81;10475864;28;20218;-58
2022/01/06 03:19:43;;;;;;;7.95;2.95;;;;;;;5.83;74.61;99980.34;10471004;28;20127;-57
2022/01/06 03:24:45;;;;;;;4.95;2.70;;;;;;;5.78;74.89;99979.81;10470184;28;20198;-59
2022/01/06 03:29:49;;;;;;;4.63;2.17;;;;;;;5.76;72.35;99979.03;10469741;28;20071;-55
2022/01/06 03:34:51;;;;;;;2.88;1.73;;;;;;;5.65;72.45;99974.47;10471530;28;20131;-58
2022/01/06 03:39:52;;;;;;;3.53;2.00;;;;;;;5.80;71.79;99998.19;10469798;28;21839;-57
2022/01/06 03:44:55;;;;;;;5.15;2.42;;;;;;;5.82;71.95;99997.16;10473018;28;20199;-56
2022/01/06 03:49:56;;;;;;;6.28;1.85;;;;;;;5.97;72.21;100002.41;10470983;28;20175;-58
2022/01/06 03:54:58;;;;;;;8.32;2.63;;;;;;;5.96;71.97;100008.59;10467668;28;20140;-57
2022/01/06 03:59:59;;;;;;;3.60;2.42;;;;;;;5.64;71.58;99996.56;10468904;28;20063;-58
2022/01/06 04:05:02;;;;;;;5.68;2.55;;;;;;;5.63;71.85;100036.22;10469053;28;20052;-57
2022/01/06 04:10:06;;;;;;;9.98;3.53;;;;;;;5.67;72.51;100045.66;10468023;28;20230;-58
2022/01/06 04:15:12;;;;;;;9.77;2.38;;;;;;;5.56;72.13;100050.78;10466316;28;20088;-58
2022/01/06 04:20:13;;;;;;;7.43;3.08;;;;;;;5.31;73.29;100060.22;10468520;28;20131;-57
2022/01/06 04:25:15;;;;;;;4.63;2.15;;;;;;;4.93;75.16;100056.34;10481161;28;20494;-58
2022/01/06 04:30:16;;;;;;;5.60;2.03;;;;;;;4.95;75.59;100061.50;10479365;28;20057;-58
2022/01/06 04:35:18;;;;;;;6.03;2.15;;;;;;;4.77;75.13;100039.72;10472202;28;20076;-58
2022/01/06 04:40:19;;;;;;;6.35;2.70;;;;;;;4.86;75.33;100048.88;10481197;28;20135;-57
2022/01/06 04:45:20;;;;;;;6.88;2.70;;;;;;;4.87;76.05;100051.44;10475081;28;20073;-58
2022/01/06 04:50:22;;;;;;;4.63;3.03;;;;;;;4.66;76.14;100050.91;10475838;28;20094;-58
2022/01/06 04:55:23;;;;;;;9.07;3.20;;;;;;;4.89;75.24;100057.44;10473594;28;20725;-58
2022/01/06 05:00:25;;;;;;;10.18;3.65;;;;;;;4.96;75.07;100057.94;10477715;28;20048;-58
2022/01/06 05:05:27;;;;;;;11.55;4.18;;;;;;;5.08;74.70;100067.75;10471167;28;20131;-58
2022/01/06 05:10:28;;;;;;;10.38;3.50;;;;;;;5.18;74.20;100073.34;10479612;28;20127;-57
2022/01/06 05:15:29;;;;;;;10.02;3.40;;;;;;;5.29;73.16;100081.44;10470072;28;20072;-57
2022/01/06 05:20:32;;;;;;;8.65;3.42;;;;;;;5.20;72.39;100081.16;10472495;28;20049;-56
2022/01/06 05:25:33;;;;;;;10.43;3.50;;;;;;;5.18;72.85;100091.81;10476089;28;20708;-57
2022/01/06 05:30:35;;;;;;;7.80;3.00;;;;;;;4.97;72.56;100086.03;10472608;28;20056;-57
2022/01/06 05:35:36;;;;;;;7.53;3.30;;;;;;;4.93;73.48;100098.53;10471987;28;20135;-58
2022/01/06 05:40:38;;;;;;;11.15;3.08;;;;;;;4.71;73.71;100104.22;10475357;28;20582;-57
2022/01/06 05:45:44;;;;;;;8.50;2.90;;;;;;;4.64;74.37;100107.31;10481921;28;20044;-57
2022/01/06 05:50:49;;;;;;;12.10;4.05;;;;;;;4.59;74.16;100105.81;10480238;28;20044;-57
2022/01/06 05:55:51;;;;;;;18.63;3.33;;;;;;;4.79;74.03;100117.00;10461689;28;21266;-60
2022/01/06 06:00:52;;;;;;;8.07;3.10;;;;;;;4.80;73.35;100110.75;10441901;28;20645;-58
2022/01/06 06:05:55;;;;;;;9.13;3.92;;;;;;;4.76;73.97;100122.44;10450356;28;20052;-57
2022/01/06 06:10:56;;;;;;;11.52;4.70;;;;;;;4.86;73.72;100133.28;10453530;28;20052;-57
2022/01/06 06:15:58;;;;;;;10.00;3.92;;;;;;;4.77;73.94;100134.66;10448084;28;20701;-57
2022/01/06 06:20:59;;;;;;;11.23;4.38;;;;;;;4.83;73.56;100144.84;10449311;28;20697;-58
2022/01/06 06:26:01;;;;;;;7.55;3.40;;;;;;;4.79;73.61;100148.63;10447111;28;20071;-62
2022/01/06 06:31:02;;;;;;;16.63;4.57;;;;;;;4.73;73.44;100159.53;10453385;28;20132;-58
2022/01/06 06:36:04;;;;;;;13.13;4.25;;;;;;;4.66;73.71;100168.72;10449942;28;20638;-58
2022/01/06 06:41:05;;;;;;;7.60;4.30;;;;;;;4.70;73.86;100172.88;10441544;28;20048;-58
2022/01/06 06:46:07;;;;;;;9.82;3.97;;;;;;;4.69;73.73;100179.94;10449460;28;20075;-58
2022/01/06 06:51:13;;;;;;;13.70;4.45;;;;;;;4.69;73.54;100184.38;10449407;28;20067;-58
2022/01/06 06:56:15;;;;;;;12.60;5.18;;;;;;;4.71;73.79;100199.16;10456704;28;20137;-56
2022/01/06 07:01:16;;;;;;;8.30;4.32;;;;;;;4.57;73.98;100205.22;10453344;28;20132;-57
2022/01/06 07:06:18;;;;;;;10.38;4.03;;;;;;;4.59;74.94;100219.19;10448972;28;20505;-61
2022/01/06 07:11:22;;;;;;;12.27;4.25;;;;;;;4.62;75.16;100236.59;10454535;28;20071;-60
2022/01/06 07:16:23;;;;;;;10.52;4.95;;;;;;;4.75;74.20;100240.25;10452819;28;20090;-61
2022/01/06 07:21:25;;;;;;;11.85;4.30;;;;;;;4.69;74.21;100230.03;10451633;28;20059;-57
2022/01/06 07:26:27;;;;;;;12.95;5.68;;;;;;;4.67;73.92;100249.50;10453588;28;20094;-58
2022/01/06 07:31:28;;;;;;;8.77;4.22;;;;;;;4.65;74.82;100261.94;10450979;28;20051;-58
2022/01/06 07:36:30;;;;;;;10.50;3.92;;;;;;;4.63;74.35;100269.94;10449426;28;20497;-58
2022/01/06 07:41:32;;;;;;;10.18;4.00;;;;;;;4.68;74.63;100277.59;10455674;28;20051;-58
2022/01/06 07:46:35;;;;;;;9.05;3.83;;;;;;;4.65;74.32;100277.78;10454284;28;20481;-58
2022/01/06 07:51:36;;;;;;;14.75;4.28;;;;;;;4.68;74.96;100299.53;10449749;28;20063;-57
2022/01/06 07:56:38;;;;;;;9.95;3.60;;;;;;;4.63;74.36;100306.03;10452792;28;20458;-57
2022/01/06 08:01:39;;;;;;;9.88;4.18;;;;;;;4.70;74.71;100329.31;10464081;28;20245;-57
2022/01/06 08:06:41;;;;;;;7.55;3.50;;;;;;;4.73;74.74;100328.31;10461040;28;20066;-57
2022/01/06 08:11:43;;;;;;;10.43;4.60;;;;;;;4.69;74.28;100314.44;10457328;28;20059;-59
2022/01/06 08:16:44;;;;;;;10.32;4.45;;;;;;;4.87;74.15;100331.03;10448647;28;20048;-56
2022/01/06 08:21:46;;;;;;;12.30;4.22;;;;;;;5.07;74.38;100342.25;10455584;28;20532;-58
2022/01/06 08:26:47;;;;;;;9.20;4.50;;;;;;;5.21;73.27;100350.25;10462607;28;20508;-60
2022/01/06 08:31:48;;;;;;;9.82;3.78;;;;;;;5.36;72.64;100347.66;10458863;28;20405;-57
2022/01/06 08:36:52;;;;;;;10.63;5.07;;;;;;;5.49;71.87;100364.50;10459684;28;20051;-57
2022/01/06 08:41:54;;;;;;;7.90;4.05;;;;;;;5.65;71.41;100375.88;10457134;28;20135;-57
2022/01/06 08:46:56;;;;;;;10.43;4.15;;;;;;;5.59;71.12;100375.41;10455167;28;20192;-56
2022/01/06 08:51:58;;;;;;;10.73;3.95;;;;;;;5.56;70.63;100383.50;10457022;28;20056;-57
2022/01/06 08:56:59;;;;;;;17.65;4.72;;;;;;;5.58;71.08;100379.81;10452220;28;20109;-56
2022/01/06 09:02:01;;;;;;;9.07;4.10;;;;;;;5.41;70.73;100377.31;10457443;28;20118;-56
2022/01/06 09:07:03;;;;;;;9.52;4.40;;;;;;;5.32;69.91;100376.88;10459207;28;20147;-57
2022/01/06 09:12:05;;;;;;;8.85;4.72;;;;;;;5.71;69.90;100389.69;10458515;28;20178;-58
2022/01/06 09:17:06;;;;;;;8.82;4.22;;;;;;;5.83;68.65;100388.97;10460578;28;20080;-56
2022/01/06 09:22:08;;;;;;;10.13;4.35;;;;;;;5.89;68.57;100398.34;10455053;28;20090;-56
2022/01/06 09:27:09;;;;;;;10.98;4.20;;;;;;;5.91;67.92;100405.19;10452354;28;20146;-57
2022/01/06 09:32:11;;;;;;;10.05;4.85;;;;;;;5.96;67.59;100405.81;10457612;28;20725;-55
2022/01/06 09:37:13;;;;;;;9.25;4.63;;;;;;;5.88;67.98;100392.19;10455922;28;20118;-56
2022/01/06 09:42:16;;;;;;;11.25;5.60;;;;;;;6.00;67.83;100423.22;10458936;28;20498;-58
2022/01/06 09:47:18;;;;;;;10.93;5.65;;;;;;;5.93;67.94;100421.84;10453152;28;20638;-57
2022/01/06 09:52:39;;;;;;;12.02;5.90;;;;;;;6.26;66.67;100417.31;10455094;28;20053;-57
2022/01/06 09:57:53;;;;;;;9.57;4.55;;;;;;;6.29;65.67;100432.97;10459130;28;20987;-57
2022/01/06 10:03:00;;;;;;;10.13;4.97;;;;;;;6.64;65.11;100430.03;10454702;28;20215;-57
2022/01/06 10:08:02;;;;;;;8.07;4.75;;;;;;;6.66;64.78;100421.03;10456195;28;20052;-57
2022/01/06 10:13:07;;;;;;;7.78;4.25;;;;;;;6.87;62.72;100418.00;10453408;28;20056;-57
2022/01/06 10:18:14;;;;;;;14.32;4.60;;;;;;;7.08;63.63;100442.28;10456782;28;20079;-56
2022/01/06 10:23:16;;;;;;;11.48;4.38;;;;;;;6.93;62.54;100422.06;10457777;28;20114;-56
2022/01/06 10:28:20;;;;;;;10.57;4.45;;;;;;;7.53;61.70;100442.09;10455494;28;20832;-57
2022/01/06 10:33:33;;;;;;;14.77;5.10;;;;;;;7.60;61.00;100448.69;10459937;28;20124;-56
2022/01/06 10:38:35;;;;;;;8.02;4.75;;;;;;;7.75;59.50;100434.44;10451996;28;20047;-56
2022/01/06 10:43:37;;;;;;;5.18;2.85;;;;;;;8.14;57.81;100427.44;10455945;28;20045;-57
2022/01/06 10:48:43;;;;;;;10.60;3.88;;;;;;;9.00;55.98;100433.09;10453534;28;20130;-57
2022/01/06 10:53:49;;;;;;;8.30;4.10;;;;;;;10.63;50.04;100401.53;10453905;28;20230;-57
2022/01/06 10:58:56;;;;;;;6.57;2.95;;;;;;;14.69;42.33;100417.31;10451080;28;20140;-58
2022/01/06 11:03:58;;;;;;;4.72;3.10;;;;;;;17.09;35.32;100426.56;10447096;28;20049;-58
2022/01/06 11:09:00;;;;;;;11.98;3.60;;;;;;;18.98;32.80;100426.69;10448417;28;20151;-58
2022/01/06 11:14:01;;;;;;;9.90;3.55;;;;;;;20.45;30.78;100424.03;10451856;28;20149;-56
2022/01/06 11:19:03;;;;;;;6.68;3.35;;;;;;;21.04;30.09;100429.69;10453114;28;20059;-57
2022/01/06 11:24:10;;;;;;;6.35;2.60;;;;;;;20.92;27.44;100426.59;10447876;28;20044;-56
2022/01/06 11:29:13;;;;;;;4.97;1.92;;;;;;;22.07;26.09;100438.56;10460099;28;20111;-58
2022/01/06 11:34:17;;;;;;;8.27;2.90;;;;;;;23.63;23.70;100427.41;10452219;28;20035;-57
2022/01/06 11:39:30;;;;;;;10.15;3.33;;;;;;;22.89;24.94;100428.94;10456438;28;20202;-58
2022/01/06 11:44:34;;;;;;;8.00;2.92;;;;;;;21.04;26.86;100419.69;10447397;28;20110;-57
2022/01/06 11:49:40;;;;;;;5.78;3.53;;;;;;;17.11;32.50;100433.47;10446894;28;20066;-56
2022/01/06 11:55:03;;;;;;;6.82;2.90;;;;;;;14.30;37.08;100438.81;10448688;28;20130;-57
2022/01/06 12:00:15;;;;;;;8.32;3.30;;;;;;;12.46;40.81;100427.50;10449892;28;20052;-57
2022/01/06 12:05:17;;;;;;;6.85;3.40;;;;;;;13.25;39.56;100421.53;10446194;28;20106;-58
2022/01/06 12:10:20;;;;;;;9.10;3.53;;;;;;;12.36;40.39;100433.66;10444415;28;20749;-58
2022/01/06 12:15:21;;;;;;;5.53;2.28;;;;;;;15.38;36.24;100417.84;10446905;28;20590;-58
2022/01/06 12:20:27;;;;;;;6.43;2.97;;;;;;;17.12;31.51;100421.69;10455289;28;20117;-57
2022/01/06 12:25:28;;;;;;;6.57;2.85;;;;;;;20.44;27.68;100414.22;10449822;28;20056;-56
2022/01/06 12:30:35;;;;;;;6.22;2.95;;;;;;;18.30;29.75;100434.22;10445753;28;20102;-56
2022/01/06 12:35:49;;;;;;;7.45;2.92;;;;;;;20.45;26.77;100413.22;10448269;28;20145;-57
2022/01/06 12:40:51;;;;;;;5.80;2.95;;;;;;;23.73;21.83;100426.19;10448532;28;20167;-56
2022/01/06 12:46:11;;;;;;;6.53;4.05;;;;;;;25.75;20.40;100410.09;10463450;23;20103;-62
2022/01/06 12:51:17;;;;;;;5.70;2.50;;;;;;;23.40;22.27;100413.34;10450477;28;20139;-61
2022/01/06 12:56:42;;;;;;;6.95;3.80;;;;;;;21.43;24.45;100432.03;10449411;28;20054;-60
2022/01/06 13:01:44;;;;;;;7.07;2.42;;;;;;;24.53;21.42;100431.69;10451072;28;20540;-61
2022/01/06 13:06:47;;;;;;;7.18;3.80;;;;;;;23.88;20.96;100412.44;10449924;28;20042;-60
2022/01/06 13:11:52;;;;;;;5.70;3.33;;;;;;;22.71;22.24;100412.38;10449161;28;20420;-61
2022/01/06 13:17:22;;;;;;;10.60;2.75;;;;;;;23.78;21.66;100420.94;10451379;28;20076;-61
2022/01/06 13:28:09;;;;;;;5.70;2.43;;;;;;;19.36;26.40;100418.72;10449789;28;20068;-60
2022/01/06 13:33:13;;;;;;;6.03;3.05;;;;;;;16.49;30.59;100438.97;10446883;28;20051;-61
2022/01/06 13:38:20;;;;;;;7.18;3.30;;;;;;;14.88;34.17;100445.03;10448376;28;20075;-60
2022/01/06 13:43:24;;;;;;;6.72;2.92;;;;;;;13.18;36.59;100457.81;10448012;28;20041;-60
2022/01/06 13:53:30;;;;;;;9.65;3.92;;;;;;;12.77;39.14;100455.09;10455965;28;20056;-60
2022/01/06 13:58:52;;;;;;;8.68;3.78;;;;;;;12.25;38.86;100468.44;10451899;28;20076;-62
2022/01/06 14:03:57;;;;;;;9.68;3.97;;;;;;;10.58;42.49;100470.22;10450767;28;20052;-61
2022/01/06 14:08:59;;;;;;;7.97;3.55;;;;;;;10.37;43.86;100470.94;10446521;28;20060;-61
2022/01/06 14:14:01;;;;;;;5.47;3.20;;;;;;;10.27;45.23;100468.06;10446201;28;20052;-61
2022/01/06 14:19:02;;;;;;;10.07;3.47;;;;;;;10.25;44.86;100450.50;10447656;28;20743;-62
2022/01/06 14:24:04;;;;;;;7.60;3.15;;;;;;;9.75;45.92;100474.63;10447831;28;20156;-61
2022/01/06 14:29:05;;;;;;;7.13;3.05;;;;;;;10.08;43.99;100476.56;10449036;28;20060;-61
2022/01/06 14:34:07;;;;;;;4.93;3.00;;;;;;;9.70;44.09;100482.94;10448771;28;20057;-61
2022/01/06 14:39:08;;;;;;;7.15;3.05;;;;;;;8.99;46.23;100489.78;10446771;28;20127;-63
2022/01/06 14:44:10;;;;;;;7.03;3.72;;;;;;;8.85;47.12;100475.66;10446946;28;20059;-63
2022/01/06 14:49:11;;;;;;;6.35;3.35;;;;;;;9.08;47.29;100489.13;10448983;28;20135;-63
2022/01/06 14:54:14;;;;;;;9.93;3.55;;;;;;;8.75;48.14;100482.59;10446604;28;20443;-62
2022/01/06 14:59:16;;;;;;;8.80;3.25;;;;;;;8.79;47.83;100484.06;10448331;28;20064;-61
2022/01/06 15:04:18;;;;;;;11.70;4.55;;;;;;;8.51;48.60;100481.63;10452558;28;20052;-60
2022/01/06 15:09:19;;;;;;;7.63;4.25;;;;;;;8.34;49.33;100488.03;10449901;28;20048;-62
2022/01/06 15:14:21;;;;;;;11.27;4.45;;;;;;;8.13;49.70;100489.34;10443805;28;20070;-61
2022/01/06 15:19:23;;;;;;;8.30;3.95;;;;;;;8.16;50.99;100482.16;10444708;28;20607;-63
2022/01/06 15:24:24;;;;;;;8.85;4.05;;;;;;;8.00;50.41;100492.94;10443579;28;20052;-62
2022/01/06 15:29:26;;;;;;;10.45;5.40;;;;;;;7.87;51.92;100485.78;10443580;28;20058;-62
2022/01/06 15:34:27;;;;;;;9.60;5.95;;;;;;;7.82;52.71;100503.81;10445299;28;20060;-61
2022/01/06 15:39:28;;;;;;;12.38;6.00;;;;;;;7.52;52.20;100493.34;10446391;28;20060;-60
2022/01/06 15:44:30;;;;;;;10.35;9.30;;;;;;;7.39;52.78;100517.97;10446566;28;20191;-60
2022/01/06 15:49:31;;;;;;;9.38;6.38;;;;;;;7.29;52.55;100522.16;10444336;28;20520;-60
2022/01/06 15:54:32;;;;;;;9.95;5.35;;;;;;;7.48;56.51;100523.66;10444658;28;20063;-61
2022/01/06 15:59:39;;;;;;;9.93;5.90;;;;;;;7.49;53.16;100541.22;10446803;28;20650;-61
2022/01/06 16:05:11;;;;;;;11.13;5.00;;;;;;;7.22;54.07;100540.22;10446442;28;20048;-64
2022/01/06 16:10:13;;;;;;;12.65;5.20;;;;;;;7.20;54.00;100546.56;10453122;28;20058;-61
2022/01/06 16:15:15;;;;;;;9.25;5.28;;;;;;;6.84;54.96;100522.22;10446813;28;20695;-61
2022/01/06 16:20:16;;;;;;;11.45;5.85;;;;;;;6.84;55.30;100529.34;10450344;28;20047;-60
2022/01/06 16:25:19;;;;;;;11.52;5.65;;;;;;;7.02;54.92;100557.31;10453908;28;20059;-62
2022/01/06 16:30:41;;;;;;;12.43;6.45;;;;;;;6.84;55.72;100553.97;10453726;28;20044;-60
2022/01/06 16:35:43;;;;;;;9.93;6.35;;;;;;;6.99;56.21;100565.44;10458003;28;20060;-61
2022/01/06 16:40:45;;;;;;;14.02;7.32;;;;;;;6.86;55.96;100559.19;10464240;28;20131;-60
2022/01/06 16:45:46;;;;;;;10.13;6.63;;;;;;;6.72;56.45;100560.88;10452768;28;20048;-62
2022/01/06 16:50:48;;;;;;;12.13;6.65;;;;;;;6.57;57.21;100553.84;10452513;28;20141;-62
2022/01/06 16:55:49;;;;;;;12.48;6.38;;;;;;;6.53;58.27;100573.47;10452360;28;20059;-61
2022/01/06 17:00:50;;;;;;;12.38;7.18;;;;;;;6.53;58.72;100557.59;10451190;28;20552;-61
2022/01/06 17:05:52;;;;;;;10.27;6.70;;;;;;;6.52;58.40;100571.78;10451272;28;20781;-63
2022/01/06 17:10:54;;;;;;;12.35;6.82;;;;;;;6.38;58.95;100572.59;10448877;28;20487;-60
2022/01/06 17:15:55;;;;;;;15.48;7.25;;;;;;;6.26;58.73;100574.16;10447464;28;20051;-61
2022/01/06 17:20:56;;;;;;;14.38;8.55;;;;;;;6.21;59.48;100572.72;10450211;28;20052;-63
2022/01/06 17:26:14;;;;;;;21.50;9.57;;;;;;;6.10;60.23;100571.53;10451386;28;20830;-62
2022/01/06 17:31:15;;;;;;;19.15;9.00;;;;;;;6.15;60.01;100574.75;10448787;28;20044;-60
2022/01/06 17:36:18;;;;;;;14.82;7.60;;;;;;;6.01;60.39;100558.84;10453562;28;20044;-63
2022/01/06 17:41:19;;;;;;;9.98;6.75;;;;;;;6.00;60.58;100562.41;10449858;28;20316;-60
2022/01/06 17:46:36;;;;;;;14.00;7.65;;;;;;;5.91;61.09;100563.75;10448478;28;20053;-60
2022/01/06 17:51:39;;;;;;;15.05;12.18;;;;;;;5.93;60.96;100567.16;10452419;28;20061;-59
2022/01/06 17:56:40;;;;;;;18.17;10.52;;;;;;;5.87;61.17;100570.16;10458036;28;20084;-59
2022/01/06 18:01:42;;;;;;;15.15;10.38;;;;;;;5.78;61.79;100576.78;10450406;28;20057;-59
2022/01/06 18:06:44;;;;;;;16.60;10.27;;;;;;;5.55;62.33;100562.19;10451371;28;20059;-59
2022/01/06 18:11:49;;;;;;;16.23;9.88;;;;;;;5.54;62.45;100584.28;10448062;28;20109;-59
2022/01/06 18:16:55;;;;;;;16.92;9.02;;;;;;;5.53;62.72;100571.16;10438934;28;20453;-61
2022/01/06 18:21:56;;;;;;;17.75;9.50;;;;;;;5.65;62.60;100581.88;10450172;28;20049;-61
2022/01/06 18:26:58;;;;;;;17.23;9.10;;;;;;;5.61;62.80;100575.06;10450819;28;20456;-61
2022/01/06 18:31:59;;;;;;;15.45;10.65;;;;;;;5.53;63.44;100574.63;10453244;28;20692;-59
2022/01/06 18:37:01;;;;;;;17.73;11.15;;;;;;;5.42;63.17;100569.06;10453703;28;20052;-62
2022/01/06 18:42:02;;;;;;;16.52;9.70;;;;;;;5.23;63.89;100579.78;10449540;28;20057;-62
2022/01/06 18:47:04;;;;;;;13.70;8.77;;;;;;;5.17;64.44;100594.16;10452870;28;20056;-61
2022/01/06 18:52:06;;;;;;;16.67;9.98;;;;;;;5.01;64.45;100570.34;10452373;28;20058;-60
2022/01/06 18:57:07;;;;;;;16.00;8.55;;;;;;;5.23;64.12;100585.06;10454284;28;20056;-60
2022/01/06 19:02:09;;;;;;;17.80;8.13;;;;;;;5.23;63.43;100575.34;10452894;28;20106;-62
2022/01/06 19:07:12;;;;;;;16.83;7.72;;;;;;;5.26;63.39;100575.19;10451408;28;20052;-61
2022/01/06 19:12:13;;;;;;;19.98;11.35;;;;;;;5.12;63.24;100564.53;10447209;28;20051;-59
2022/01/06 19:17:15;;;;;;;14.93;8.15;;;;;;;4.92;63.47;100560.28;10447154;28;20048;-60
2022/01/06 19:22:16;;;;;;;11.57;6.70;;;;;;;4.91;63.79;100556.78;10444879;28;20545;-58
2022/01/06 19:27:17;;;;;;;15.98;7.10;;;;;;;5.07;63.58;100567.38;10444383;28;20048;-59
2022/01/06 19:32:19;;;;;;;11.65;6.47;;;;;;;5.05;63.50;100576.31;10442930;28;20059;-59
2022/01/06 19:37:20;;;;;;;11.43;7.40;;;;;;;4.99;63.60;100580.13;10445588;28;20055;-60
2022/01/06 19:42:22;;;;;;;14.35;6.40;;;;;;;4.72;63.55;100554.25;10445053;28;20048;-61
2022/01/06 19:47:23;;;;;;;18.35;7.70;;;;;;;4.72;64.33;100577.13;10446121;28;20417;-62
2022/01/06 19:52:25;;;;;;;16.10;7.32;;;;;;;4.60;64.49;100587.34;10447094;28;20048;-62
2022/01/06 19:57:26;;;;;;;14.07;6.38;;;;;;;4.36;65.57;100580.69;10444660;28;20055;-61
2022/01/06 20:02:28;;;;;;;14.38;6.63;;;;;;;4.37;66.06;100595.59;10443537;28;20175;-61
2022/01/06 20:07:29;;;;;;;13.45;6.45;;;;;;;4.44;66.11;100581.13;10446394;28;20102;-60
2022/01/06 20:12:31;;;;;;;13.77;6.13;;;;;;;4.33;66.32;100580.84;10448371;28;20628;-61
2022/01/06 20:17:36;;;;;;;10.90;6.05;;;;;;;4.21;67.10;100580.50;10446626;28;20138;-62
2022/01/06 20:22:37;;;;;;;13.97;6.40;;;;;;;4.16;67.02;100573.75;10452529;28;20613;-62
2022/01/06 20:27:39;;;;;;;12.70;5.90;;;;;;;4.01;67.70;100567.47;10456477;28;20056;-60
2022/01/06 20:32:41;;;;;;;14.18;6.43;;;;;;;4.07;67.36;100556.63;10456886;28;20058;-60
2022/01/06 20:37:42;;;;;;;13.13;6.25;;;;;;;4.05;67.81;100558.47;10444982;28;20063;-63
2022/01/06 20:42:44;;;;;;;10.23;6.07;;;;;;;3.99;68.07;100545.59;10445371;28;20498;-60
2022/01/06 20:51:16;;;;;;;13.07;7.25;;;;;;;4.08;68.27;100566.22;10449114;28;20914;-63
2022/01/06 20:53:18;;;;;;;14.77;6.75;;;;;;;4.14;68.20;100579.09;10442934;28;20578;-61
2022/01/06 20:58:21;;;;;;;14.50;7.75;;;;;;;4.10;68.24;100580.19;10447980;28;20052;-60
2022/01/06 21:03:23;;;;;;;13.23;6.93;;;;;;;4.02;68.59;100570.00;10429149;28;20055;-61
2022/01/06 21:08:26;;;;;;;13.35;6.80;;;;;;;4.06;68.93;100566.28;10455768;28;20056;-63
2022/01/06 21:13:27;;;;;;;11.68;7.50;;;;;;;3.95;68.89;100565.09;10450547;28;20152;-60
2022/01/06 21:18:29;;;;;;;15.90;7.15;;;;;;;4.08;68.58;100566.22;10453819;28;20052;-61
2022/01/06 21:23:30;;;;;;;10.52;6.03;;;;;;;4.07;69.25;100556.63;10453589;28;20194;-62
2022/01/06 21:28:32;;;;;;;13.93;7.30;;;;;;;4.07;69.23;100572.44;10447713;28;20345;-62
2022/01/06 21:33:34;;;;;;;15.27;7.78;;;;;;;4.02;69.29;100574.41;10453564;28;20049;-62
2022/01/06 21:38:36;;;;;;;10.55;6.82;;;;;;;3.88;70.33;100562.75;10452857;28;20661;-61
2022/01/06 21:43:38;;;;;;;15.32;12.00;;;;;;;3.75;69.05;100545.81;10452067;28;20051;-62
2022/01/06 21:48:40;;;;;;;18.55;11.30;;;;;;;3.69;69.47;100562.78;10453208;28;20086;-61
2022/01/06 21:53:42;;;;;;;20.40;10.85;;;;;;;3.68;70.22;100560.22;10455469;28;20135;-61
2022/01/06 21:58:43;;;;;;;12.40;8.50;;;;;;;3.61;70.76;100551.75;10450812;28;20048;-63
2022/01/06 22:03:44;;;;;;;15.73;11.00;;;;;;;3.49;70.70;100545.28;10450932;28;20542;-63
2022/01/06 22:08:46;;;;;;;18.33;10.57;;;;;;;3.41;70.55;100536.88;10447630;28;20056;-62
2022/01/06 22:13:51;;;;;;;18.25;11.05;;;;;;;3.33;70.79;100539.00;10443842;28;20040;-62
2022/01/06 22:18:52;;;;;;;17.95;12.70;;;;;;;3.38;70.17;100546.69;10445707;28;20734;-62
2022/01/06 22:23:54;;;;;;;17.33;11.50;;;;;;;3.37;69.64;100551.09;10447039;28;20052;-62
2022/01/06 22:28:55;;;;;;;19.08;11.77;;;;;;;3.33;69.45;100533.75;10448813;28;20063;-63
2022/01/06 22:33:58;;;;;;;20.10;11.45;;;;;;;3.34;69.38;100541.56;10452117;28;20052;-59
2022/01/06 22:39:00;;;;;;;15.15;12.02;;;;;;;3.23;69.67;100517.53;10459867;28;20128;-63
2022/01/06 22:44:02;;;;;;;18.20;13.25;;;;;;;3.23;69.90;100535.09;10438754;28;20060;-60
2022/01/06 22:49:03;;;;;;;16.58;11.48;;;;;;;3.01;70.03;100491.34;10451518;28;20083;-60
2022/01/06 22:54:05;;;;;;;18.73;12.38;;;;;;;3.06;69.92;100494.63;10449545;28;20053;-62
2022/01/06 22:59:06;;;;;;;20.17;13.63;;;;;;;3.18;70.22;100491.44;10447397;28;20469;-60
2022/01/06 23:04:07;;;;;;;18.75;12.50;;;;;;;3.19;70.49;100487.88;10450757;28;20059;-61
2022/01/06 23:09:09;;;;;;;15.70;11.93;;;;;;;3.13;70.66;100485.53;10449222;28;20067;-61
2022/01/06 23:14:11;;;;;;;18.42;12.75;;;;;;;3.17;70.32;100486.25;10447791;28;20066;-61
2022/01/06 23:19:12;;;;;;;18.20;12.63;;;;;;;3.03;70.03;100468.44;10443111;28;20044;-61
2022/01/06 23:24:16;;;;;;;17.92;11.23;;;;;;;3.08;70.61;100487.53;10449656;28;20053;-61
2022/01/06 23:29:18;;;;;;;15.65;11.88;;;;;;;3.04;70.38;100478.06;10445381;28;20699;-61
2022/01/06 23:34:19;;;;;;;17.00;11.82;;;;;;;3.02;70.72;100472.03;10444493;28;20049;-61